createdAt,value
2023-01-08T00:00:35.584Z,33.66
2023-01-08T00:01:35.485Z,38.87
2023-01-08T00:02:35.600Z,49.84
2023-01-08T00:03:35.564Z,47.49
2023-01-08T00:04:35.434Z,43.55
2023-01-08T00:05:35.425Z,45.04
2023-01-08T00:06:35.689Z,43.21
2023-01-08T00:07:35.401Z,43.38
2023-01-08T00:08:35.433Z,44.67
2023-01-08T00:09:35.378Z,42.03
2023-01-08T00:10:35.371Z,41.24
2023-01-08T00:11:35.370Z,38.37
2023-01-08T00:12:35.372Z,39.09
2023-01-08T00:13:35.439Z,40.40
2023-01-08T00:14:35.333Z,37.58
2023-01-08T00:15:35.363Z,35.93
2023-01-08T00:16:35.349Z,32.50
2023-01-08T00:17:35.325Z,34.78
2023-01-08T00:18:35.526Z,28.47
2023-01-08T00:19:35.305Z,27.13
2023-01-08T00:20:35.312Z,29.00
2023-01-08T00:21:35.306Z,28.28
2023-01-08T00:22:35.279Z,25.28
2023-01-08T00:23:35.295Z,26.03
2023-01-08T00:24:35.269Z,25.79
2023-01-08T00:25:35.257Z,25.07
2023-01-08T00:26:35.289Z,30.55
2023-01-08T00:27:35.232Z,27.45
2023-01-08T00:28:35.230Z,28.18
2023-01-08T00:29:35.242Z,29.26
2023-01-08T00:30:35.244Z,27.79
2023-01-08T00:31:35.205Z,29.78
2023-01-08T00:32:35.190Z,26.78
2023-01-08T00:33:35.201Z,27.23
2023-01-08T00:34:35.239Z,26.03
2023-01-08T00:35:35.183Z,27.61
2023-01-08T00:36:35.450Z,26.30
2023-01-08T00:37:35.151Z,25.01
2023-01-08T00:38:35.143Z,27.92
2023-01-08T00:39:35.150Z,28.44
2023-01-08T00:40:35.161Z,25.00
2023-01-08T00:41:35.101Z,26.19
2023-01-08T00:42:35.127Z,29.28
2023-01-08T00:43:35.106Z,28.13
2023-01-08T00:44:35.112Z,28.19
2023-01-08T00:45:35.096Z,31.52
2023-01-08T00:46:35.143Z,29.24
2023-01-08T00:47:35.052Z,27.83
2023-01-08T00:48:35.054Z,26.81
2023-01-08T00:49:35.049Z,26.45
2023-01-08T00:50:35.133Z,26.15
2023-01-08T00:51:35.033Z,25.24
2023-01-08T00:52:35.067Z,26.46
2023-01-08T00:53:35.004Z,26.24
2023-01-08T00:54:35.021Z,25.00
2023-01-08T00:55:35.002Z,27.62
2023-01-08T00:56:34.981Z,29.60
2023-01-08T00:57:34.987Z,28.02
2023-01-08T00:58:34.995Z,29.08
2023-01-08T00:59:34.986Z,27.73
2023-01-08T01:00:35.005Z,27.73
2023-01-08T01:01:35.067Z,25.40
2023-01-08T01:02:34.923Z,25.00
2023-01-08T01:03:34.918Z,29.27
2023-01-08T01:04:34.953Z,25.00
2023-01-08T01:05:34.937Z,27.22
2023-01-08T01:06:34.940Z,26.91
2023-01-08T01:07:34.890Z,25.58
2023-01-08T01:08:34.887Z,25.31
2023-01-08T01:09:34.889Z,27.51
2023-01-08T01:10:34.886Z,26.37
2023-01-08T01:11:34.882Z,27.18
2023-01-08T01:12:34.855Z,28.72
2023-01-08T01:13:34.837Z,26.06
2023-01-08T01:14:34.832Z,28.43
2023-01-08T01:15:34.851Z,25.28
2023-01-08T01:16:34.843Z,29.49
2023-01-08T01:17:34.809Z,26.51
2023-01-08T01:18:34.796Z,28.14
2023-01-08T01:19:34.793Z,28.13
2023-01-08T01:20:34.807Z,28.05
2023-01-08T01:21:34.771Z,29.45
2023-01-08T01:22:34.852Z,27.81
2023-01-08T01:23:34.748Z,26.72
2023-01-08T01:24:34.742Z,27.73
2023-01-08T01:25:34.739Z,27.01
2023-01-08T01:26:34.759Z,25.13
2023-01-08T01:27:34.729Z,27.96
2023-01-08T01:28:34.704Z,25.08
2023-01-08T01:29:34.744Z,28.38
2023-01-08T01:30:34.742Z,28.00
2023-01-08T01:31:34.688Z,28.33
2023-01-08T01:32:34.702Z,28.72
2023-01-08T01:33:34.654Z,28.21
2023-01-08T01:34:34.656Z,30.56
2023-01-08T01:35:34.692Z,28.73
2023-01-08T01:36:34.650Z,27.39
2023-01-08T01:37:34.638Z,26.17
2023-01-08T01:38:34.695Z,27.39
2023-01-08T01:39:34.611Z,28.12
2023-01-08T01:40:34.604Z,27.94
2023-01-08T01:41:34.622Z,27.48
2023-01-08T01:42:34.587Z,28.23
2023-01-08T01:43:34.597Z,26.60
2023-01-08T01:44:34.562Z,25.00
2023-01-08T01:45:34.624Z,28.76
2023-01-08T01:46:34.556Z,27.93
2023-01-08T01:47:34.566Z,26.82
2023-01-08T01:48:34.555Z,26.90
2023-01-08T01:49:34.535Z,28.41
2023-01-08T01:50:34.546Z,28.65
2023-01-08T01:51:34.522Z,28.98
2023-01-08T01:52:34.526Z,29.27
2023-01-08T01:53:34.503Z,25.00
2023-01-08T01:54:34.556Z,27.67
2023-01-08T01:55:34.472Z,27.94
2023-01-08T01:56:34.469Z,27.76
2023-01-08T01:57:34.471Z,30.04
2023-01-08T01:58:34.446Z,26.23
2023-01-08T01:59:34.447Z,32.91
2023-01-08T02:00:34.447Z,31.93
2023-01-08T02:01:34.557Z,28.79
2023-01-08T02:02:34.499Z,25.00
2023-01-08T02:03:34.415Z,57.00
2023-01-08T02:04:34.395Z,95.56
2023-01-08T02:05:34.390Z,121.95
2023-01-08T02:06:34.385Z,156.42
2023-01-08T02:07:34.385Z,161.35
2023-01-08T02:08:34.358Z,164.54
2023-01-08T02:09:34.351Z,157.03
2023-01-08T02:10:34.408Z,146.98
2023-01-08T02:11:34.355Z,148.81
2023-01-08T02:12:34.346Z,149.21
2023-01-08T02:13:34.337Z,143.85
2023-01-08T02:14:34.309Z,138.16
2023-01-08T02:15:34.307Z,132.22
2023-01-08T02:16:34.362Z,121.21
2023-01-08T02:17:34.279Z,117.98
2023-01-08T02:18:34.284Z,107.64
2023-01-08T02:19:34.308Z,130.72
2023-01-08T02:20:34.270Z,132.30
2023-01-08T02:21:34.256Z,110.48
2023-01-08T02:22:34.240Z,115.58
2023-01-08T02:23:34.244Z,118.23
2023-01-08T02:24:34.248Z,117.81
2023-01-08T02:25:34.209Z,116.66
2023-01-08T02:26:34.290Z,116.70
2023-01-08T02:27:34.208Z,104.36
2023-01-08T02:28:34.197Z,99.59
2023-01-08T02:29:34.184Z,98.85
2023-01-08T02:30:34.246Z,99.44
2023-01-08T02:31:34.159Z,112.88
2023-01-08T02:32:34.146Z,104.36
2023-01-08T02:33:34.153Z,96.69
2023-01-08T02:34:34.153Z,95.37
2023-01-08T02:35:34.154Z,95.84
2023-01-08T02:36:34.121Z,97.06
2023-01-08T02:37:34.110Z,95.50
2023-01-08T02:38:34.099Z,95.66
2023-01-08T02:39:34.110Z,97.01
2023-01-08T02:40:34.074Z,97.11
2023-01-08T02:41:34.077Z,94.31
2023-01-08T02:42:34.204Z,91.27
2023-01-08T02:43:34.081Z,94.70
2023-01-08T02:44:34.065Z,101.27
2023-01-08T02:45:34.037Z,102.44
2023-01-08T02:46:34.028Z,90.38
2023-01-08T02:47:34.037Z,96.77
2023-01-08T02:48:34.017Z,96.46
2023-01-08T02:49:34.007Z,95.10
2023-01-08T02:50:34.061Z,94.06
2023-01-08T02:51:33.999Z,102.73
2023-01-08T02:52:33.980Z,100.43
2023-01-08T02:53:33.973Z,91.04
2023-01-08T02:54:33.987Z,94.77
2023-01-08T02:55:33.958Z,89.18
2023-01-08T02:56:33.948Z,85.51
2023-01-08T02:57:33.941Z,85.58
2023-01-08T02:58:33.997Z,81.13
2023-01-08T02:59:33.998Z,80.84
2023-01-08T03:00:33.927Z,76.82
2023-01-08T03:01:34.027Z,73.65
2023-01-08T03:02:33.934Z,72.54
2023-01-08T03:03:33.898Z,71.06
2023-01-08T03:04:33.963Z,67.92
2023-01-08T03:05:33.876Z,64.86
2023-01-08T03:06:33.850Z,63.31
2023-01-08T03:07:33.847Z,59.28
2023-01-08T03:08:33.841Z,58.24
2023-01-08T03:09:33.858Z,56.83
2023-01-08T03:10:33.832Z,52.23
2023-01-08T03:11:33.936Z,62.53
2023-01-08T03:12:33.803Z,59.35
2023-01-08T03:13:33.801Z,56.43
2023-01-08T03:14:33.859Z,54.96
2023-01-08T03:15:33.868Z,59.17
2023-01-08T03:16:33.814Z,60.90
2023-01-08T03:17:33.831Z,59.86
2023-01-08T03:18:33.760Z,55.75
2023-01-08T03:19:33.745Z,55.79
2023-01-08T03:20:33.731Z,55.73
2023-01-08T03:21:33.857Z,52.37
2023-01-08T03:22:33.753Z,53.60
2023-01-08T03:23:33.721Z,48.80
2023-01-08T03:24:33.692Z,51.67
2023-01-08T03:25:33.696Z,49.12
2023-01-08T03:26:33.689Z,52.94
2023-01-08T03:27:33.700Z,48.49
2023-01-08T03:28:33.696Z,48.89
2023-01-08T03:29:33.661Z,48.18
2023-01-08T03:30:33.810Z,46.82
2023-01-08T03:31:33.644Z,43.34
2023-01-08T03:32:33.631Z,45.57
2023-01-08T03:33:33.633Z,42.35
2023-01-08T03:34:33.623Z,40.38
2023-01-08T03:35:33.621Z,40.59
2023-01-08T03:36:33.592Z,43.78
2023-01-08T03:37:33.588Z,40.26
2023-01-08T03:38:33.585Z,40.99
2023-01-08T03:39:33.581Z,41.35
2023-01-08T03:40:33.588Z,38.05
2023-01-08T03:41:33.565Z,36.32
2023-01-08T03:42:33.557Z,38.68
2023-01-08T03:43:33.530Z,40.83
2023-01-08T03:44:33.533Z,36.62
2023-01-08T03:45:33.544Z,36.31
2023-01-08T03:46:33.659Z,35.58
2023-01-08T03:47:33.499Z,34.66
2023-01-08T03:48:33.516Z,34.67
2023-01-08T03:49:33.491Z,34.52
2023-01-08T03:50:33.496Z,32.91
2023-01-08T03:51:33.467Z,34.57
2023-01-08T03:52:33.455Z,33.85
2023-01-08T03:53:33.451Z,33.08
2023-01-08T03:54:33.474Z,31.28
2023-01-08T03:55:33.428Z,32.16
2023-01-08T03:56:33.437Z,33.07
2023-01-08T03:57:33.424Z,29.84
2023-01-08T03:58:33.408Z,29.15
2023-01-08T03:59:33.419Z,32.22
2023-01-08T04:00:33.392Z,29.26
2023-01-08T04:01:33.427Z,30.56
2023-01-08T04:02:33.594Z,29.38
2023-01-08T04:03:33.391Z,28.47
2023-01-08T04:04:33.411Z,29.65
2023-01-08T04:05:33.373Z,27.07
2023-01-08T04:06:33.331Z,26.88
2023-01-08T04:07:33.330Z,28.60
2023-01-08T04:08:33.349Z,26.55
2023-01-08T04:09:33.309Z,25.97
2023-01-08T04:10:33.323Z,27.30
2023-01-08T04:11:33.325Z,25.52
2023-01-08T04:12:33.288Z,26.77
2023-01-08T04:13:33.279Z,25.00
2023-01-08T04:14:33.269Z,25.91
2023-01-08T04:15:33.316Z,25.81
2023-01-08T04:16:33.256Z,25.66
2023-01-08T04:17:33.291Z,26.36
2023-01-08T04:18:33.307Z,28.25
2023-01-08T04:19:33.223Z,27.47
2023-01-08T04:20:33.229Z,27.38
2023-01-08T04:21:33.210Z,25.87
2023-01-08T04:22:33.235Z,27.13
2023-01-08T04:23:33.192Z,30.71
2023-01-08T04:24:33.185Z,33.49
2023-01-08T04:25:33.179Z,38.85
2023-01-08T04:26:33.165Z,42.28
2023-01-08T04:27:33.157Z,45.07
2023-01-08T04:28:33.174Z,40.78
2023-01-08T04:29:33.145Z,45.61
2023-01-08T04:30:33.165Z,49.99
2023-01-08T04:31:33.134Z,45.67
2023-01-08T04:32:33.116Z,50.10
2023-01-08T04:33:33.112Z,52.79
2023-01-08T04:34:33.190Z,52.96
2023-01-08T04:35:33.086Z,51.46
2023-01-08T04:36:33.086Z,48.74
2023-01-08T04:37:33.077Z,50.80
2023-01-08T04:38:33.061Z,49.78
2023-01-08T04:39:33.078Z,49.83
2023-01-08T04:40:33.055Z,49.04
2023-01-08T04:41:33.037Z,48.50
2023-01-08T04:42:33.045Z,47.20
2023-01-08T04:43:33.041Z,47.91
2023-01-08T04:44:33.045Z,49.51
2023-01-08T04:45:32.999Z,45.38
2023-01-08T04:46:33.035Z,46.52
2023-01-08T04:47:32.979Z,49.20
2023-01-08T04:48:32.993Z,47.35
2023-01-08T04:49:32.976Z,46.26
2023-01-08T04:50:33.030Z,46.55
2023-01-08T04:51:32.974Z,44.56
2023-01-08T04:52:32.964Z,45.12
2023-01-08T04:53:32.947Z,41.89
2023-01-08T04:54:32.927Z,44.51
2023-01-08T04:55:32.916Z,44.51
2023-01-08T04:56:32.904Z,43.57
2023-01-08T04:57:32.918Z,42.83
2023-01-08T04:58:32.884Z,42.90
2023-01-08T04:59:32.886Z,38.87
2023-01-08T05:00:32.875Z,43.56
2023-01-08T05:01:33.074Z,37.38
2023-01-08T05:02:33.033Z,34.79
2023-01-08T05:03:32.904Z,32.33
2023-01-08T05:04:32.839Z,32.84
2023-01-08T05:05:32.821Z,32.86
2023-01-08T05:06:32.961Z,33.53
2023-01-08T05:07:32.811Z,31.74
2023-01-08T05:08:32.825Z,31.98
2023-01-08T05:09:32.793Z,31.48
2023-01-08T05:10:32.782Z,30.64
2023-01-08T05:11:32.775Z,29.47
2023-01-08T05:12:32.793Z,30.32
2023-01-08T05:13:32.764Z,28.63
2023-01-08T05:14:32.744Z,26.21
2023-01-08T05:15:32.790Z,26.21
2023-01-08T05:16:32.747Z,26.90
2023-01-08T05:17:32.754Z,26.43
2023-01-08T05:18:32.774Z,26.84
2023-01-08T05:19:32.739Z,25.73
2023-01-08T05:20:32.700Z,27.26
2023-01-08T05:21:32.691Z,25.00
2023-01-08T05:22:32.788Z,26.56
2023-01-08T05:23:32.721Z,25.84
2023-01-08T05:24:32.660Z,25.18
2023-01-08T05:25:32.643Z,26.45
2023-01-08T05:26:32.652Z,26.92
2023-01-08T05:27:32.640Z,26.98
2023-01-08T05:28:32.657Z,25.85
2023-01-08T05:29:32.644Z,27.82
2023-01-08T05:30:32.625Z,26.79
2023-01-08T05:31:32.730Z,25.90
2023-01-08T05:32:32.592Z,26.86
2023-01-08T05:33:32.613Z,26.36
2023-01-08T05:34:32.582Z,28.06
2023-01-08T05:35:32.559Z,27.49
2023-01-08T05:36:32.594Z,26.30
2023-01-08T05:37:32.540Z,26.19
2023-01-08T05:38:32.664Z,25.80
2023-01-08T05:39:32.536Z,27.76
2023-01-08T05:40:32.598Z,28.71
2023-01-08T05:41:32.518Z,27.45
2023-01-08T05:42:32.526Z,29.47
2023-01-08T05:43:32.495Z,27.63
2023-01-08T05:44:32.507Z,25.51
2023-01-08T05:45:32.485Z,26.74
2023-01-08T05:46:32.526Z,28.48
2023-01-08T05:47:32.459Z,25.00
2023-01-08T05:48:32.468Z,27.98
2023-01-08T05:49:32.466Z,28.64
2023-01-08T05:50:32.445Z,25.57
2023-01-08T05:51:32.421Z,26.36
2023-01-08T05:52:32.418Z,26.62
2023-01-08T05:53:32.426Z,27.30
2023-01-08T05:54:32.502Z,25.00
2023-01-08T05:55:32.385Z,26.25
2023-01-08T05:56:32.442Z,27.45
2023-01-08T05:57:32.388Z,28.50
2023-01-08T05:58:32.378Z,28.25
2023-01-08T05:59:32.354Z,25.20
2023-01-08T06:00:32.365Z,27.85
2023-01-08T06:01:32.383Z,27.37
2023-01-08T06:02:32.345Z,28.66
2023-01-08T06:03:32.330Z,27.03
2023-01-08T06:04:32.352Z,26.92
2023-01-08T06:05:32.328Z,26.65
2023-01-08T06:06:32.297Z,26.87
2023-01-08T06:07:32.306Z,27.13
2023-01-08T06:08:32.281Z,28.25
2023-01-08T06:09:32.284Z,27.29
2023-01-08T06:10:32.331Z,25.06
2023-01-08T06:11:32.280Z,27.48
2023-01-08T06:12:32.243Z,29.18
2023-01-08T06:13:32.241Z,26.97
2023-01-08T06:14:32.265Z,27.58
2023-01-08T06:15:32.283Z,27.35
2023-01-08T06:16:32.210Z,28.02
2023-01-08T06:17:32.225Z,26.07
2023-01-08T06:18:32.198Z,27.10
2023-01-08T06:19:32.183Z,27.57
2023-01-08T06:20:32.254Z,26.92
2023-01-08T06:21:32.188Z,26.18
2023-01-08T06:22:33.577Z,29.64
2023-01-08T06:23:32.141Z,26.99
2023-01-08T06:24:32.193Z,26.22
2023-01-08T06:25:32.122Z,25.89
2023-01-08T06:26:32.196Z,28.48
2023-01-08T06:27:32.121Z,26.79
2023-01-08T06:28:32.140Z,27.09
2023-01-08T06:29:32.109Z,25.97
2023-01-08T06:30:32.110Z,25.62
2023-01-08T06:31:32.107Z,26.43
2023-01-08T06:32:32.073Z,26.74
2023-01-08T06:33:32.069Z,25.77
2023-01-08T06:34:32.060Z,26.36
2023-01-08T06:35:32.099Z,26.30
2023-01-08T06:36:32.037Z,25.63
2023-01-08T06:37:32.035Z,25.53
2023-01-08T06:38:32.056Z,33.81
2023-01-08T06:39:32.033Z,27.74
2023-01-08T06:40:32.017Z,27.67
2023-01-08T06:41:31.987Z,28.05
2023-01-08T06:42:32.066Z,31.83
2023-01-08T06:43:31.989Z,35.72
2023-01-08T06:44:31.986Z,38.10
2023-01-08T06:45:32.004Z,38.85
2023-01-08T06:46:32.044Z,38.34
2023-01-08T06:47:31.987Z,35.95
2023-01-08T06:48:31.937Z,36.28
2023-01-08T06:49:31.932Z,35.50
2023-01-08T06:50:31.923Z,34.89
2023-01-08T06:51:31.932Z,34.94
2023-01-08T06:52:31.915Z,35.11
2023-01-08T06:53:31.888Z,37.62
2023-01-08T06:54:31.876Z,33.60
2023-01-08T06:55:31.913Z,33.33
2023-01-08T06:56:32.238Z,34.72
2023-01-08T06:57:31.888Z,34.82
2023-01-08T06:58:31.916Z,35.25
2023-01-08T06:59:31.833Z,35.23
2023-01-08T07:00:31.912Z,38.11
2023-01-08T07:01:31.933Z,37.94
2023-01-08T07:02:32.045Z,35.28
2023-01-08T07:03:31.880Z,33.08
2023-01-08T07:04:31.823Z,32.34
2023-01-08T07:05:31.778Z,33.76
2023-01-08T07:06:31.799Z,38.54
2023-01-08T07:07:31.766Z,37.34
2023-01-08T07:08:31.760Z,35.95
2023-01-08T07:09:31.751Z,37.03
2023-01-08T07:10:31.751Z,34.69
2023-01-08T07:11:31.745Z,34.96
2023-01-08T07:12:31.758Z,35.66
2023-01-08T07:13:31.714Z,38.10
2023-01-08T07:14:31.719Z,31.66
2023-01-08T07:15:31.737Z,36.51
2023-01-08T07:16:31.709Z,36.90
2023-01-08T07:17:31.741Z,35.77
2023-01-08T07:18:31.673Z,37.90
2023-01-08T07:19:31.666Z,31.72
2023-01-08T07:20:31.659Z,40.91
2023-01-08T07:21:31.669Z,36.08
2023-01-08T07:22:31.644Z,38.03
2023-01-08T07:23:31.644Z,41.22
2023-01-08T07:24:31.656Z,39.72
2023-01-08T07:25:31.615Z,39.91
2023-01-08T07:26:31.670Z,49.79
2023-01-08T07:27:31.606Z,43.56
2023-01-08T07:28:31.620Z,55.38
2023-01-08T07:29:31.584Z,59.57
2023-01-08T07:30:31.678Z,70.02
2023-01-08T07:31:31.655Z,66.18
2023-01-08T07:32:31.559Z,65.12
2023-01-08T07:33:31.560Z,67.31
2023-01-08T07:34:31.552Z,69.40
2023-01-08T07:35:31.524Z,65.45
2023-01-08T07:36:31.543Z,69.06
2023-01-08T07:37:31.511Z,67.97
2023-01-08T07:38:31.531Z,69.50
2023-01-08T07:39:31.510Z,66.46
2023-01-08T07:40:31.507Z,69.34
2023-01-08T07:41:31.503Z,71.80
2023-01-08T07:42:31.461Z,67.25
2023-01-08T07:43:31.466Z,67.88
2023-01-08T07:44:31.451Z,69.71
2023-01-08T07:45:31.466Z,68.79
2023-01-08T07:46:31.551Z,69.02
2023-01-08T07:47:31.446Z,70.92
2023-01-08T07:48:31.414Z,71.50
2023-01-08T07:49:31.421Z,74.31
2023-01-08T07:50:31.402Z,78.27
2023-01-08T07:51:31.392Z,82.64
2023-01-08T07:52:31.397Z,78.69
2023-01-08T07:53:31.380Z,79.36
2023-01-08T07:54:31.392Z,81.18
2023-01-08T07:55:31.349Z,78.40
2023-01-08T07:56:31.352Z,84.94
2023-01-08T07:57:31.341Z,82.99
2023-01-08T07:58:31.326Z,75.21
2023-01-08T07:59:31.317Z,84.15
2023-01-08T08:00:31.498Z,80.32
2023-01-08T08:01:31.382Z,84.69
2023-01-08T08:02:31.419Z,82.65
2023-01-08T08:03:31.363Z,83.80
2023-01-08T08:04:31.285Z,83.50
2023-01-08T08:05:31.309Z,83.57
2023-01-08T08:06:31.273Z,79.05
2023-01-08T08:07:31.264Z,81.12
2023-01-08T08:08:31.238Z,81.67
2023-01-08T08:09:31.221Z,84.93
2023-01-08T08:10:31.229Z,79.88
2023-01-08T08:11:31.252Z,80.71
2023-01-08T08:12:31.196Z,78.74
2023-01-08T08:13:31.202Z,79.18
2023-01-08T08:14:31.194Z,85.32
2023-01-08T08:15:31.225Z,81.13
2023-01-08T08:16:31.273Z,81.14
2023-01-08T08:17:31.169Z,80.94
2023-01-08T08:18:31.230Z,81.95
2023-01-08T08:19:31.133Z,77.94
2023-01-08T08:20:31.160Z,79.13
2023-01-08T08:21:31.146Z,78.41
2023-01-08T08:22:31.124Z,77.81
2023-01-08T08:23:31.108Z,78.40
2023-01-08T08:24:31.110Z,76.86
2023-01-08T08:25:31.096Z,77.40
2023-01-08T08:26:31.107Z,79.15
2023-01-08T08:27:31.075Z,76.62
2023-01-08T08:28:31.077Z,75.27
2023-01-08T08:29:31.057Z,77.27
2023-01-08T08:30:31.066Z,75.99
2023-01-08T08:31:31.120Z,75.37
2023-01-08T08:32:31.032Z,73.69
2023-01-08T08:33:31.021Z,75.31
2023-01-08T08:34:31.082Z,76.13
2023-01-08T08:35:31.007Z,77.70
2023-01-08T08:36:31.053Z,72.84
2023-01-08T08:37:30.983Z,76.18
2023-01-08T08:38:30.980Z,71.63
2023-01-08T08:39:30.983Z,81.36
2023-01-08T08:40:30.962Z,78.08
2023-01-08T08:41:30.987Z,79.32
2023-01-08T08:42:30.983Z,80.06
2023-01-08T08:43:30.948Z,79.46
2023-01-08T08:44:30.958Z,79.71
2023-01-08T08:45:30.918Z,76.47
2023-01-08T08:46:30.964Z,78.74
2023-01-08T08:47:30.922Z,75.70
2023-01-08T08:48:30.889Z,77.62
2023-01-08T08:49:30.896Z,80.16
2023-01-08T08:50:30.952Z,76.93
2023-01-08T08:51:30.871Z,78.37
2023-01-08T08:52:30.876Z,79.17
2023-01-08T08:53:30.852Z,79.33
2023-01-08T08:54:30.853Z,78.60
2023-01-08T08:55:30.877Z,75.12
2023-01-08T08:56:30.824Z,76.84
2023-01-08T08:57:30.817Z,75.73
2023-01-08T08:58:30.808Z,76.91
2023-01-08T08:59:30.801Z,75.26
2023-01-08T09:00:30.804Z,73.77
2023-01-08T09:01:30.893Z,75.04
2023-01-08T09:02:30.943Z,77.42
2023-01-08T09:03:30.871Z,71.65
2023-01-08T09:04:30.777Z,70.92
2023-01-08T09:05:30.747Z,69.36
2023-01-08T09:06:30.809Z,72.49
2023-01-08T09:07:30.739Z,70.45
2023-01-08T09:08:30.758Z,72.22
2023-01-08T09:09:30.716Z,68.91
2023-01-08T09:10:30.701Z,70.21
2023-01-08T09:11:30.700Z,69.58
2023-01-08T09:12:30.691Z,79.32
2023-01-08T09:13:30.695Z,82.47
2023-01-08T09:14:30.667Z,89.70
2023-01-08T09:15:30.676Z,82.56
2023-01-08T09:16:30.696Z,80.05
2023-01-08T09:17:30.642Z,79.50
2023-01-08T09:18:30.653Z,86.70
2023-01-08T09:19:30.660Z,88.74
2023-01-08T09:20:30.627Z,87.16
2023-01-08T09:21:30.602Z,88.65
2023-01-08T09:22:30.671Z,88.96
2023-01-08T09:23:30.609Z,89.90
2023-01-08T09:24:30.575Z,87.87
2023-01-08T09:25:30.574Z,89.16
2023-01-08T09:26:30.604Z,90.75
2023-01-08T09:27:30.563Z,87.81
2023-01-08T09:28:30.563Z,86.63
2023-01-08T09:29:30.566Z,88.89
2023-01-08T09:30:30.542Z,89.66
2023-01-08T09:31:30.587Z,93.68
2023-01-08T09:32:30.540Z,91.85
2023-01-08T09:33:30.504Z,89.78
2023-01-08T09:34:30.535Z,87.05
2023-01-08T09:35:30.536Z,90.11
2023-01-08T09:36:30.483Z,87.90
2023-01-08T09:37:30.465Z,91.93
2023-01-08T09:38:30.535Z,89.62
2023-01-08T09:39:30.456Z,87.50
2023-01-08T09:40:30.455Z,84.47
2023-01-08T09:41:30.460Z,86.22
2023-01-08T09:42:30.426Z,84.45
2023-01-08T09:43:30.442Z,79.22
2023-01-08T09:44:30.413Z,80.74
2023-01-08T09:45:30.402Z,74.26
2023-01-08T09:46:30.457Z,74.98
2023-01-08T09:47:30.418Z,75.90
2023-01-08T09:48:30.375Z,78.58
2023-01-08T09:49:30.363Z,74.98
2023-01-08T09:50:30.358Z,75.15
2023-01-08T09:51:30.354Z,76.72
2023-01-08T09:52:30.336Z,76.72
2023-01-08T09:53:30.356Z,75.47
2023-01-08T09:54:30.405Z,72.75
2023-01-08T09:55:30.331Z,73.11
2023-01-08T09:56:30.307Z,68.20
2023-01-08T09:57:30.301Z,75.40
2023-01-08T09:58:30.287Z,70.81
2023-01-08T09:59:30.281Z,74.25
2023-01-08T10:00:30.348Z,72.11
2023-01-08T10:01:30.336Z,70.70
2023-01-08T10:02:30.383Z,77.76
2023-01-08T10:03:30.252Z,79.02
2023-01-08T10:04:30.250Z,80.28
2023-01-08T10:05:30.251Z,80.97
2023-01-08T10:06:30.208Z,88.57
2023-01-08T10:07:30.215Z,96.05
2023-01-08T10:08:30.196Z,92.47
2023-01-08T10:09:30.233Z,93.35
2023-01-08T10:10:30.274Z,93.47
2023-01-08T10:11:30.172Z,88.37
2023-01-08T10:12:30.186Z,93.25
2023-01-08T10:13:30.165Z,98.75
2023-01-08T10:14:30.146Z,97.43
2023-01-08T10:15:30.147Z,98.66
2023-01-08T10:16:30.181Z,102.64
2023-01-08T10:17:30.128Z,103.47
2023-01-08T10:18:30.107Z,96.53
2023-01-08T10:19:30.107Z,103.84
2023-01-08T10:20:30.087Z,103.63
2023-01-08T10:21:30.115Z,103.72
2023-01-08T10:22:30.091Z,100.92
2023-01-08T10:23:30.113Z,101.89
2023-01-08T10:24:30.067Z,103.56
2023-01-08T10:25:30.043Z,109.32
2023-01-08T10:26:30.143Z,105.43
2023-01-08T10:27:30.072Z,100.93
2023-01-08T10:28:30.025Z,105.16
2023-01-08T10:29:30.018Z,105.74
2023-01-08T10:30:30.005Z,107.62
2023-01-08T10:31:30.043Z,108.78
2023-01-08T10:32:29.988Z,109.33
2023-01-08T10:33:29.999Z,110.87
2023-01-08T10:34:29.971Z,113.28
2023-01-08T10:35:29.969Z,110.90
2023-01-08T10:36:29.957Z,108.00
2023-01-08T10:37:29.956Z,104.79
2023-01-08T10:38:32.793Z,110.13
2023-01-08T10:39:29.935Z,108.17
2023-01-08T10:40:29.920Z,107.16
2023-01-08T10:41:30.030Z,106.41
2023-01-08T10:42:29.930Z,105.02
2023-01-08T10:43:29.894Z,104.35
2023-01-08T10:44:29.887Z,102.66
2023-01-08T10:45:29.895Z,94.99
2023-01-08T10:46:29.893Z,171.72
2023-01-08T10:47:29.868Z,158.49
2023-01-08T10:48:29.863Z,147.18
2023-01-08T10:49:29.851Z,162.85
2023-01-08T10:50:29.859Z,166.05
2023-01-08T10:51:29.826Z,162.80
2023-01-08T10:52:29.817Z,153.86
2023-01-08T10:53:29.811Z,160.15
2023-01-08T10:54:29.823Z,168.47
2023-01-08T10:55:29.789Z,174.01
2023-01-08T10:56:29.800Z,172.93
2023-01-08T10:57:29.781Z,176.30
2023-01-08T10:58:29.878Z,177.31
2023-01-08T10:59:29.777Z,178.67
2023-01-08T11:00:29.786Z,174.99
2023-01-08T11:01:29.759Z,169.79
2023-01-08T11:02:29.848Z,166.53
2023-01-08T11:03:29.759Z,167.74
2023-01-08T11:04:29.717Z,166.76
2023-01-08T11:05:29.732Z,162.05
2023-01-08T11:06:29.692Z,161.31
2023-01-08T11:07:29.688Z,158.20
2023-01-08T11:08:29.690Z,155.91
2023-01-08T11:09:29.716Z,153.77
2023-01-08T11:10:29.654Z,151.12
2023-01-08T11:11:29.653Z,150.27
2023-01-08T11:12:29.673Z,148.10
2023-01-08T11:13:29.646Z,145.92
2023-01-08T11:14:29.663Z,143.38
2023-01-08T11:15:29.619Z,139.01
2023-01-08T11:16:29.643Z,139.57
2023-01-08T11:17:29.594Z,135.09
2023-01-08T11:18:29.618Z,137.70
2023-01-08T11:19:29.601Z,134.16
2023-01-08T11:20:29.575Z,133.13
2023-01-08T11:21:29.565Z,130.72
2023-01-08T11:22:29.553Z,129.66
2023-01-08T11:23:29.570Z,130.35
2023-01-08T11:24:29.544Z,126.04
2023-01-08T11:25:29.565Z,128.01
2023-01-08T11:26:29.516Z,123.60
2023-01-08T11:27:29.519Z,124.51
2023-01-08T11:28:29.620Z,122.48
2023-01-08T11:29:29.497Z,119.01
2023-01-08T11:30:29.504Z,117.35
2023-01-08T11:31:29.539Z,116.82
2023-01-08T11:32:29.465Z,112.83
2023-01-08T11:33:29.483Z,117.78
2023-01-08T11:34:29.453Z,114.75
2023-01-08T11:35:29.481Z,111.61
2023-01-08T11:36:29.439Z,109.62
2023-01-08T11:37:29.435Z,109.48
2023-01-08T11:38:29.568Z,108.63
2023-01-08T11:39:29.416Z,106.55
2023-01-08T11:40:29.420Z,105.13
2023-01-08T11:41:29.415Z,105.04
2023-01-08T11:42:29.400Z,103.62
2023-01-08T11:43:29.368Z,99.60
2023-01-08T11:44:29.368Z,102.21
2023-01-08T11:45:29.410Z,100.25
2023-01-08T11:46:29.356Z,101.12
2023-01-08T11:47:29.338Z,99.80
2023-01-08T11:48:29.337Z,96.35
2023-01-08T11:49:29.328Z,96.52
2023-01-08T11:50:29.350Z,95.22
2023-01-08T11:51:29.306Z,97.09
2023-01-08T11:52:29.298Z,92.76
2023-01-08T11:53:29.296Z,91.46
2023-01-08T11:54:29.300Z,88.69
2023-01-08T11:55:29.270Z,89.28
2023-01-08T11:56:29.293Z,89.72
2023-01-08T11:57:29.271Z,92.57
2023-01-08T11:58:29.254Z,94.44
2023-01-08T11:59:29.285Z,92.68
2023-01-08T12:00:29.232Z,92.39
2023-01-08T12:01:29.251Z,99.07
2023-01-08T12:02:29.219Z,93.10
2023-01-08T12:03:29.397Z,175.48
2023-01-08T12:04:29.223Z,170.82
2023-01-08T12:05:29.185Z,169.87
2023-01-08T12:06:29.184Z,174.83
2023-01-08T12:07:29.169Z,181.25
2023-01-08T12:08:29.163Z,177.47
2023-01-08T12:09:29.145Z,170.90
2023-01-08T12:10:29.174Z,177.36
2023-01-08T12:11:29.128Z,172.18
2023-01-08T12:12:29.148Z,167.67
2023-01-08T12:13:29.108Z,167.94
2023-01-08T12:14:29.111Z,165.26
2023-01-08T12:15:29.101Z,159.94
2023-01-08T12:16:29.173Z,160.68
2023-01-08T12:17:29.075Z,160.77
2023-01-08T12:18:29.099Z,154.85
2023-01-08T12:19:29.066Z,155.44
2023-01-08T12:20:29.104Z,151.96
2023-01-08T12:21:29.055Z,152.03
2023-01-08T12:22:29.080Z,150.06
2023-01-08T12:23:29.032Z,147.58
2023-01-08T12:24:29.038Z,149.81
2023-01-08T12:25:29.030Z,149.67
2023-01-08T12:26:29.061Z,145.53
2023-01-08T12:27:54.637Z,145.64
2023-01-08T12:28:30.051Z,146.02
2023-01-08T12:29:28.982Z,146.24
2023-01-08T12:30:28.980Z,146.67
2023-01-08T12:31:29.018Z,140.48
2023-01-08T12:32:28.975Z,137.03
2023-01-08T12:33:28.943Z,134.85
2023-01-08T12:34:28.948Z,124.24
2023-01-08T12:35:28.931Z,130.05
2023-01-08T12:36:28.937Z,128.86
2023-01-08T12:37:28.908Z,124.44
2023-01-08T12:38:28.925Z,125.22
2023-01-08T12:39:28.882Z,122.04
2023-01-08T12:40:28.880Z,123.98
2023-01-08T12:41:28.875Z,126.08
2023-01-08T12:42:28.865Z,125.48
2023-01-08T12:43:28.902Z,125.92
2023-01-08T12:44:28.847Z,119.79
2023-01-08T12:45:28.917Z,117.16
2023-01-08T12:46:28.843Z,113.56
2023-01-08T12:47:28.831Z,114.35